createdAt,value
2019-05-05T00:01:34.460Z,1.77
2019-05-05T00:04:29.007Z,1.53
2019-05-05T00:06:58.496Z,1.60
2019-05-05T00:09:27.901Z,2.10
2019-05-05T00:12:16.174Z,1.60
2019-05-05T00:15:07.502Z,1.40
2019-05-05T00:17:37.685Z,1.50
2019-05-05T00:20:07.237Z,1.87
2019-05-05T00:22:36.655Z,1.70
2019-05-05T00:25:06.592Z,1.63
2019-05-05T00:27:36.004Z,1.27
2019-05-05T00:30:05.998Z,1.47
2019-05-05T00:32:35.404Z,1.53
2019-05-05T00:35:05.223Z,1.50
2019-05-05T00:37:34.687Z,1.20
2019-05-05T00:40:05.017Z,1.77
2019-05-05T00:42:35.241Z,1.40
2019-05-05T00:45:05.589Z,1.30
2019-05-05T00:47:41.927Z,1.20
2019-05-05T00:50:14.594Z,1.70
2019-05-05T00:52:44.577Z,1.27
2019-05-05T00:55:15.154Z,1.70
2019-05-05T00:57:45.338Z,1.30
2019-05-05T01:00:15.229Z,1.30
2019-05-05T01:02:47.935Z,1.60
2019-05-05T01:05:42.389Z,1.50
2019-05-05T01:08:16.079Z,1.20
2019-05-05T01:10:45.527Z,1.50
2019-05-05T01:13:15.250Z,1.93
2019-05-05T01:15:44.937Z,1.53
2019-05-05T01:18:15.241Z,1.40
2019-05-05T01:20:44.987Z,1.33
2019-05-05T01:23:15.046Z,1.23
2019-05-05T01:25:46.135Z,1.33
2019-05-05T01:28:15.891Z,1.80
2019-05-05T01:30:47.867Z,1.50
2019-05-05T01:33:34.274Z,1.20
2019-05-05T01:36:04.682Z,1.13
2019-05-05T01:38:52.834Z,1.83
2019-05-05T01:41:34.776Z,1.50
2019-05-05T01:44:04.977Z,1.40
2019-05-05T01:46:35.341Z,1.53
2019-05-05T01:49:05.472Z,1.43
2019-05-05T01:51:35.564Z,1.40
2019-05-05T01:54:05.405Z,1.20
2019-05-05T01:56:35.299Z,1.10
2019-05-05T01:59:05.273Z,1.40
2019-05-05T02:01:35.323Z,1.50
2019-05-05T02:04:05.535Z,1.70
2019-05-05T02:06:35.297Z,1.57
2019-05-05T02:09:05.543Z,1.60
2019-05-05T02:11:35.368Z,1.30
2019-05-05T02:14:05.206Z,1.23
2019-05-05T02:16:34.878Z,1.23
2019-05-05T02:19:05.023Z,1.40
2019-05-05T02:21:35.262Z,1.40
2019-05-05T02:24:05.302Z,1.50
2019-05-05T02:26:35.187Z,1.30
2019-05-05T02:29:29.215Z,1.73
2019-05-05T02:32:29.593Z,1.50
2019-05-05T02:35:00.724Z,1.53
2019-05-05T02:37:30.155Z,1.27
2019-05-05T02:40:06.403Z,1.47
2019-05-05T02:42:30.744Z,1.30
2019-05-05T02:45:05.090Z,1.37
2019-05-05T02:47:35.019Z,1.40
2019-05-05T02:50:07.006Z,1.77
2019-05-05T02:52:36.463Z,2.07
2019-05-05T02:55:06.487Z,1.73
2019-05-05T02:57:35.916Z,1.67
2019-05-05T03:00:23.935Z,1.63
2019-05-05T03:02:53.903Z,1.93
2019-05-05T03:05:23.612Z,1.63
2019-05-05T03:07:54.319Z,1.43
2019-05-05T03:10:24.559Z,1.87
2019-05-05T03:12:54.471Z,1.80
2019-05-05T03:15:38.062Z,1.57
2019-05-05T03:18:07.483Z,1.33
2019-05-05T03:20:36.919Z,1.30
2019-05-05T03:23:06.343Z,1.30
2019-05-05T03:25:35.754Z,1.83
2019-05-05T03:28:05.282Z,1.30
2019-05-05T03:30:35.581Z,1.30
2019-05-05T03:33:05.773Z,1.83
2019-05-05T03:35:35.936Z,1.30
2019-05-05T03:38:05.398Z,1.80
2019-05-05T03:40:36.556Z,1.43
2019-05-05T03:43:11.951Z,1.60
2019-05-05T03:45:45.993Z,1.40
2019-05-05T03:48:15.589Z,1.40
2019-05-05T03:50:45.070Z,1.60
2019-05-05T03:53:14.554Z,1.90
2019-05-05T03:55:44.152Z,1.70
2019-05-05T03:58:14.688Z,1.87
2019-05-05T04:02:05.196Z,2.10
2019-05-05T04:04:39.643Z,2.20
2019-05-05T04:07:09.071Z,2.30
2019-05-05T04:09:38.646Z,1.70
2019-05-05T04:12:08.109Z,2.30
2019-05-05T04:14:37.843Z,2.43
2019-05-05T04:17:16.262Z,1.90
2019-05-05T04:19:47.963Z,2.00
2019-05-05T04:22:17.421Z,1.90
2019-05-05T04:24:46.856Z,2.00
2019-05-05T04:27:16.380Z,1.90
2019-05-05T04:29:45.945Z,2.20
2019-05-05T04:32:15.686Z,1.90
2019-05-05T04:34:45.482Z,1.93
2019-05-05T04:37:15.178Z,2.57
2019-05-05T04:39:44.708Z,1.60
2019-05-05T04:42:14.312Z,2.40
2019-05-05T04:44:44.926Z,1.83
2019-05-05T04:47:20.765Z,2.20
2019-05-05T04:49:59.800Z,2.07
2019-05-05T04:52:29.978Z,2.20
2019-05-05T04:54:59.507Z,2.50
2019-05-05T04:57:29.072Z,2.40
2019-05-05T04:59:58.543Z,2.17
2019-05-05T05:02:39.288Z,2.00
2019-05-05T05:05:28.114Z,2.50
2019-05-05T05:07:58.182Z,2.17
2019-05-05T05:10:27.832Z,3.00
2019-05-05T05:12:57.301Z,2.30
2019-05-05T05:15:26.740Z,2.53
2019-05-05T05:18:04.111Z,2.60
2019-05-05T05:20:34.068Z,2.00
2019-05-05T05:23:03.766Z,2.67
2019-05-05T05:25:34.678Z,2.83
2019-05-05T05:28:04.420Z,2.50
2019-05-05T05:30:34.744Z,2.40
2019-05-05T05:33:04.512Z,2.80
2019-05-05T05:35:34.128Z,2.90
2019-05-05T05:38:04.703Z,2.47
2019-05-05T05:41:04.190Z,2.70
2019-05-05T05:43:58.318Z,2.52
2019-05-05T05:46:54.433Z,2.83
2019-05-05T05:49:30.284Z,3.08
2019-05-05T05:52:12.364Z,3.20
2019-05-05T05:54:31.270Z,3.35
2019-05-05T05:57:00.708Z,3.20
2019-05-05T05:59:30.172Z,2.80
2019-05-05T06:02:09.866Z,3.20
2019-05-05T06:04:30.967Z,3.83
2019-05-05T06:07:00.612Z,3.43
2019-05-05T06:09:30.043Z,4.07
2019-05-05T06:11:59.477Z,2.63
2019-05-05T06:19:26.055Z,2.57
2019-05-05T06:24:24.142Z,3.30
2019-05-05T06:26:54.756Z,2.87
2019-05-05T06:29:24.531Z,3.70
2019-05-05T06:31:54.059Z,3.57
2019-05-05T06:34:24.446Z,4.03
2019-05-05T06:36:54.040Z,4.40
2019-05-05T06:39:24.145Z,4.57
2019-05-05T06:42:18.748Z,3.17
2019-05-05T06:45:04.007Z,3.63
2019-05-05T06:47:37.568Z,3.20
2019-05-05T06:50:07.086Z,3.43
2019-05-05T06:52:44.257Z,3.47
2019-05-05T06:55:07.913Z,3.40
2019-05-05T06:57:37.359Z,3.10
2019-05-05T07:00:07.055Z,2.57
2019-05-05T07:02:36.517Z,2.90
2019-05-05T07:05:05.968Z,3.00
2019-05-05T07:07:35.589Z,3.30
2019-05-05T07:10:05.219Z,2.60
2019-05-05T07:12:34.847Z,3.10
2019-05-05T07:15:04.432Z,3.50
2019-05-05T07:17:34.017Z,3.00
2019-05-05T07:20:04.328Z,2.77
2019-05-05T07:22:34.692Z,2.83
2019-05-05T07:25:04.867Z,2.83
2019-05-05T07:27:34.389Z,2.13
2019-05-05T07:30:04.786Z,2.57
2019-05-05T07:32:34.554Z,2.03
2019-05-05T07:35:34.354Z,2.23
2019-05-05T07:38:04.478Z,2.10
2019-05-05T07:40:34.649Z,2.90
2019-05-05T07:43:04.590Z,2.50
2019-05-05T07:45:34.468Z,2.93
2019-05-05T07:48:04.800Z,2.80
2019-05-05T07:50:35.865Z,2.27
2019-05-05T07:53:14.632Z,2.10
2019-05-05T07:55:37.159Z,2.00
2019-05-05T07:58:06.639Z,2.00
2019-05-05T08:00:36.143Z,2.33
2019-05-05T08:03:05.693Z,2.37
2019-05-05T08:05:35.274Z,2.30
2019-05-05T08:08:04.767Z,2.67
2019-05-05T08:10:34.486Z,2.83
2019-05-05T08:13:04.782Z,2.67
2019-05-05T08:15:34.511Z,2.93
2019-05-05T08:18:16.278Z,3.90
2019-05-05T08:20:48.772Z,3.43
2019-05-05T08:23:44.665Z,4.10
2019-05-05T08:26:43.954Z,3.90
2019-05-05T08:29:34.702Z,3.10
2019-05-05T08:32:13.659Z,3.53
2019-05-05T08:34:56.651Z,2.80
2019-05-05T08:37:14.706Z,3.60
2019-05-05T08:39:44.753Z,2.93
2019-05-05T08:42:14.493Z,3.43
2019-05-05T08:44:44.746Z,3.50
2019-05-05T08:47:14.340Z,2.77
2019-05-05T08:49:44.347Z,3.50
2019-05-05T08:52:14.518Z,3.20
2019-05-05T08:54:44.769Z,3.47
2019-05-05T08:57:14.788Z,2.90
2019-05-05T08:59:43.949Z,4.10
2019-05-05T09:02:15.001Z,2.60
2019-05-05T09:04:44.895Z,3.00
2019-05-05T09:07:14.408Z,2.53
2019-05-05T09:09:44.290Z,3.20
2019-05-05T09:12:14.173Z,3.00
2019-05-05T09:14:44.919Z,3.37
2019-05-05T09:17:14.493Z,2.77
2019-05-05T09:19:44.875Z,2.77
2019-05-05T09:22:14.608Z,2.43
2019-05-05T09:25:04.163Z,2.00
2019-05-05T09:27:40.111Z,1.97
2019-05-05T09:30:10.500Z,2.43
2019-05-05T09:32:40.144Z,2.03
2019-05-05T09:35:09.596Z,2.10
2019-05-05T09:37:39.297Z,2.60
2019-05-05T09:45:06.055Z,1.90
2019-05-05T09:47:35.479Z,2.45
2019-05-05T09:50:05.221Z,2.33
2019-05-05T09:52:34.846Z,3.67
2019-05-05T09:57:34.407Z,2.30
2019-05-05T10:07:41.312Z,2.67
2019-05-05T10:10:11.242Z,2.23
2019-05-05T10:12:40.833Z,1.97
2019-05-05T10:15:10.299Z,2.10
2019-05-05T10:17:39.768Z,2.50
2019-05-05T10:20:09.241Z,2.00
2019-05-05T10:22:38.763Z,2.00
2019-05-05T10:25:25.915Z,2.70
2019-05-05T10:27:55.728Z,2.30
2019-05-05T10:30:25.204Z,2.63
2019-05-05T10:32:54.797Z,2.07
2019-05-05T10:35:24.348Z,2.90
2019-05-05T10:37:54.510Z,2.20
2019-05-05T10:40:28.104Z,2.33
2019-05-05T10:42:57.707Z,1.80
2019-05-05T10:45:27.128Z,2.30
2019-05-05T10:47:56.686Z,2.37
2019-05-05T10:50:26.154Z,2.20
2019-05-05T10:52:55.793Z,2.22
2019-05-05T10:55:25.335Z,2.60
2019-05-05T10:57:55.296Z,2.30
2019-05-05T11:00:44.334Z,3.20
2019-05-05T11:03:14.812Z,3.62
2019-05-05T11:05:45.179Z,1.90
2019-05-05T11:08:14.681Z,2.22
2019-05-05T11:10:45.091Z,4.17
2019-05-05T11:13:14.925Z,3.15
2019-05-05T11:15:44.657Z,2.70
2019-05-05T11:18:14.990Z,2.43
2019-05-05T11:20:44.977Z,1.77
2019-05-05T11:23:15.341Z,2.93
2019-05-05T11:25:45.032Z,2.80
2019-05-05T11:28:14.527Z,3.43
2019-05-05T11:30:45.554Z,2.50
2019-05-05T11:33:40.025Z,2.47
2019-05-05T11:36:21.542Z,3.50
2019-05-05T11:38:51.049Z,2.40
2019-05-05T11:53:45.006Z,2.20
2019-05-05T11:56:14.684Z,2.83
2019-05-05T11:58:44.459Z,2.70
2019-05-05T12:01:14.135Z,2.40
2019-05-05T12:03:44.305Z,2.70
2019-05-05T12:06:14.809Z,2.63
2019-05-05T12:08:45.948Z,2.53
2019-05-05T12:11:16.001Z,2.73
2019-05-05T12:13:45.440Z,2.77
2019-05-05T12:16:29.885Z,2.47
2019-05-05T12:19:00.668Z,1.90
2019-05-05T12:21:30.081Z,2.30
2019-05-05T12:26:51.461Z,2.33
2019-05-05T12:29:29.874Z,2.07
2019-05-05T12:31:59.309Z,3.13
2019-05-05T12:34:28.710Z,1.95
2019-05-05T12:41:55.126Z,2.08
2019-05-05T13:38:04.156Z,2.60
2019-05-05T13:40:34.564Z,1.82
2019-05-05T13:43:04.356Z,2.30
2019-05-05T13:45:45.856Z,1.53
2019-05-05T13:48:15.311Z,2.00
2019-05-05T13:50:48.103Z,2.75
2019-05-05T13:53:17.559Z,2.00
2019-05-05T13:55:47.089Z,1.98
2019-05-05T13:58:17.684Z,1.80
2019-05-05T14:00:51.486Z,3.20
2019-05-05T14:03:28.679Z,1.92
2019-05-05T14:06:04.559Z,1.90
2019-05-05T14:08:36.254Z,2.50
2019-05-05T14:11:04.961Z,2.15
2019-05-05T14:13:34.435Z,2.62
2019-05-05T14:16:14.374Z,2.50
2019-05-05T14:18:48.910Z,2.00
2019-05-05T14:21:18.558Z,2.58
2019-05-05T14:24:14.332Z,2.70
2019-05-05T14:26:44.014Z,1.92
2019-05-05T14:29:15.533Z,1.87
2019-05-05T14:31:45.012Z,2.70
2019-05-05T14:34:26.717Z,2.30
2019-05-05T14:37:14.596Z,1.90
2019-05-05T14:39:44.161Z,2.10
2019-05-05T14:42:14.707Z,2.60
2019-05-05T14:44:44.377Z,2.40
2019-05-05T14:47:13.825Z,1.90
2019-05-05T14:49:44.392Z,2.17
2019-05-05T14:52:13.914Z,2.12
2019-05-05T14:54:43.497Z,1.92
2019-05-05T14:57:13.959Z,2.10
2019-05-05T14:59:43.499Z,2.30
2019-05-05T15:02:14.504Z,2.15
2019-05-05T15:04:44.388Z,2.10
2019-05-05T15:07:33.950Z,2.20
2019-05-05T15:10:40.879Z,1.90
2019-05-05T15:13:10.948Z,3.50
2019-05-05T15:15:40.469Z,2.37
2019-05-05T15:18:09.900Z,2.50
2019-05-05T15:20:39.332Z,2.37
2019-05-05T15:23:08.964Z,1.60
2019-05-05T15:25:38.398Z,1.87
2019-05-05T15:28:07.833Z,2.30
2019-05-05T15:30:37.248Z,1.75
2019-05-05T15:33:06.683Z,2.00
2019-05-05T15:35:36.165Z,2.10
2019-05-05T15:38:05.638Z,2.52
2019-05-05T15:40:35.070Z,2.40
2019-05-05T15:43:04.519Z,2.10
2019-05-05T15:45:34.168Z,2.30
2019-05-05T15:48:04.578Z,1.92
2019-05-05T15:50:34.228Z,2.00
2019-05-05T15:53:03.872Z,1.92
2019-05-05T15:55:33.990Z,2.20
2019-05-05T15:58:03.656Z,1.90
2019-05-05T16:00:33.796Z,2.40
2019-05-05T16:03:04.449Z,1.70
2019-05-05T16:05:34.609Z,1.90
2019-05-05T16:08:04.541Z,2.67
2019-05-05T16:10:34.754Z,2.90
2019-05-05T16:13:04.574Z,2.33
2019-05-05T16:15:53.507Z,2.30
2019-05-05T16:18:44.229Z,1.95
2019-05-05T16:21:20.516Z,2.47
2019-05-05T16:23:54.385Z,2.70
2019-05-05T16:26:24.556Z,2.50
2019-05-05T16:28:55.285Z,2.23
2019-05-05T16:31:27.436Z,2.17
2019-05-05T16:33:56.012Z,1.70
2019-05-05T16:36:25.461Z,2.17
2019-05-05T16:38:54.897Z,3.25
2019-05-05T16:41:24.367Z,1.82
2019-05-05T16:43:53.799Z,1.60
2019-05-05T16:46:23.890Z,2.10
2019-05-05T16:48:54.128Z,2.20
2019-05-05T16:51:27.897Z,1.85
2019-05-05T16:53:59.348Z,1.70
2019-05-05T16:56:28.779Z,2.47
2019-05-05T16:58:58.277Z,1.50
2019-05-05T17:01:27.738Z,2.47
2019-05-05T17:04:08.364Z,2.67
2019-05-05T17:06:28.426Z,3.13
2019-05-05T17:08:57.929Z,1.40
2019-05-05T17:11:27.375Z,1.90
2019-05-05T17:14:12.162Z,2.90
2019-05-05T17:17:14.340Z,2.30
2019-05-05T17:20:04.640Z,2.63
2019-05-05T17:22:40.993Z,1.93
2019-05-05T17:25:11.219Z,1.83
2019-05-05T17:27:48.553Z,1.70
2019-05-05T17:30:11.799Z,1.43
2019-05-05T17:32:41.298Z,1.60
2019-05-05T17:35:18.627Z,2.03
2019-05-05T17:37:53.742Z,1.53
2019-05-05T17:40:33.662Z,1.83
2019-05-05T17:43:38.400Z,2.20
2019-05-05T17:46:20.550Z,2.20
2019-05-05T17:49:14.200Z,2.57
2019-05-05T17:52:01.002Z,2.30
2019-05-05T17:54:36.633Z,2.07
2019-05-05T17:57:06.720Z,2.00
2019-05-05T17:59:36.151Z,2.07
2019-05-05T18:02:05.669Z,2.73
2019-05-05T18:04:35.104Z,3.20
2019-05-05T18:07:14.551Z,2.03
2019-05-05T18:10:15.295Z,2.27
2019-05-05T18:13:18.968Z,2.17
2019-05-05T18:16:00.787Z,1.53
2019-05-05T18:18:30.236Z,1.60
2019-05-05T18:20:59.670Z,2.40
2019-05-05T18:23:29.125Z,2.10
2019-05-05T18:25:58.535Z,1.67
2019-05-05T18:28:28.076Z,1.63
2019-05-05T18:30:57.501Z,1.10
2019-05-05T18:33:26.939Z,1.90
2019-05-05T18:35:56.378Z,1.33
2019-05-05T18:38:29.405Z,2.10
2019-05-05T18:41:06.216Z,2.13
2019-05-05T18:43:55.330Z,1.50
2019-05-05T18:46:24.923Z,1.83
2019-05-05T18:48:55.814Z,1.17
2019-05-05T18:51:30.482Z,2.10
2019-05-05T18:54:06.861Z,1.20
2019-05-05T18:56:44.323Z,1.60
2019-05-05T18:59:14.453Z,1.70
2019-05-05T19:01:53.679Z,2.03
2019-05-05T19:04:40.163Z,1.30
2019-05-05T19:07:24.201Z,1.60
2019-05-05T19:09:58.535Z,1.90
2019-05-05T19:12:28.068Z,1.73
2019-05-05T19:14:58.999Z,1.27
2019-05-05T19:17:28.937Z,2.47
2019-05-05T19:20:04.104Z,2.33
2019-05-05T19:22:33.817Z,1.65
2019-05-05T19:25:16.268Z,1.20
2019-05-05T19:27:46.269Z,1.60
2019-05-05T19:30:15.837Z,1.60
2019-05-05T19:32:45.292Z,1.90
2019-05-05T19:35:14.728Z,2.13
2019-05-05T19:37:44.635Z,1.97
2019-05-05T19:40:14.318Z,1.70
2019-05-05T19:42:46.043Z,1.33
2019-05-05T19:45:14.885Z,2.17
2019-05-05T19:47:44.564Z,1.30
2019-05-05T19:50:21.106Z,1.33
2019-05-05T19:52:50.689Z,1.50
2019-05-05T19:55:20.129Z,1.93
2019-05-05T19:57:49.584Z,1.87
2019-05-05T20:00:19.061Z,1.60
2019-05-05T20:03:01.441Z,1.20
2019-05-05T20:05:19.652Z,1.47
2019-05-05T20:07:49.112Z,1.47
2019-05-05T20:10:18.641Z,1.93
2019-05-05T20:12:48.067Z,2.03
2019-05-05T20:15:33.792Z,3.30
2019-05-05T20:18:04.667Z,1.17
2019-05-05T20:20:34.178Z,2.53
2019-05-05T20:23:04.266Z,1.83
2019-05-05T20:25:34.102Z,1.93
2019-05-05T20:28:04.000Z,1.40
2019-05-05T20:30:34.234Z,1.70
2019-05-05T20:33:13.768Z,2.47
